KFIG

Clearfield-Lawrence Airport

Clearfield, Pennsylvania, USA
METAR KFIG 211454Z AUTO 29012G21KT 9SM BKN021 OVC027 M08/M22 A3024 RMK AO2 UPE09B50E52 SLP273 P0000 60000 T10831222 52037
Observed Flight Rules
Jan-21 @ 14:54 UTC (an hour ago) Marginal Visual Flight Rules
Wind Visibility Clouds
290° at 12 knots
 Gusting to 21 knots
9 miles
  • Broken at 2,100' AGL
  • Overcast at 2,700' AGL
Temperatures Readings Precipitation
Current -8°C / 18°F
Dewpoint -22°C / -8°F
Humidity 32%
Altimeter 30.24" Hg
Pressure 1027.3 hPa
Elevation 462
Current Rain 0.01
METAR KFIG 211454Z AUTO 29012G21KT 9SM BKN021 OVC027 M08/M22 A3024 RMK AO2 UPE09B50E52 SLP273 P0000 60000 T10831222 52037
Observed Flight Rules
Jan-21 @ 14:54 UTC
(an hour ago)
MVFR
Wind Visibility
290° at 12 knots
 Gusting to 21 knots
9 miles
Clouds
  • Broken at 2,100' AGL
  • Overcast at 2,700' AGL
Temperature Dewpoint
-8°C / 18°F -22°C / -8°F
Humidity Altimeter Pressure
32% 30.24" Hg 1027.3 hPa
Current Rain
0.01